Latest Weather Observations for Macquarie Island

IDT60801

Issued at 8:05 pm EST Thursday 2 October 2014 (issued every 30 minutes, with the page automatically refreshed every 10 minutes)

About weather observations | Map of weather stations | Latest weather observations for TAS | Other Formats
Station Details ID: 300004 Name: MACQUARIE ISLAND Lat: -54.50 Lon: 158.94 Height: 6.0 m
Data from the previous 72 hours. | See also: Recent months at Macquarie Island
Date/Time
EST
Temp
°C
App
Temp
°C
Dew
Point
Rel
Hum
%
Delta-T
°C
Wind Press
QNH
hPa
Press
MSL
hPa
Rain
since 9 am
mm
Dir
 
Spd
km/h
Gust
km/h
Spd
kts
Gust
kts
02/08:00pm 1.1 -7.0 -0.1 92 0.4 W 32 52 17 28 965.3 - 2.0
02/07:30pm 0.7 -8.0 -0.4 92 0.4 W 35 74 19 40 965.2 - 1.4
02/07:00pm 1.0 -7.7 -0.6 89 0.6 W 35 57 19 31 964.6 - 0.8
02/06:56pm 1.3 -7.0 -0.5 88 0.6 W 33 56 18 30 964.6 - 0.8
02/06:30pm 1.8 -6.8 0.2 89 0.6 W 35 43 19 23 964.5 - 0.8
02/06:28pm 1.9 -7.1 0.3 89 0.6 W 37 43 20 23 964.5 - 0.8
02/06:00pm 2.3 -7.9 0.0 85 0.9 WNW 43 50 23 27 964.1 964.4 0.6
02/05:59pm 2.6 -7.5 0.5 86 0.8 WNW 43 50 23 27 964.2 - 0.6
02/05:30pm 2.4 -6.2 0.0 84 0.9 W 35 44 19 24 964.5 - 0.6
02/05:00pm 2.5 -7.2 0.2 85 0.9 W 41 50 22 27 964.4 - 0.6
02/04:30pm 3.2 -5.4 -0.1 79 1.2 W 35 43 19 23 964.2 - 0.6
02/04:00pm 3.2 -4.8 0.6 83 1.0 W 32 43 17 23 963.8 - 0.6
02/03:30pm 3.7 -3.4 1.6 86 0.8 W 28 35 15 19 963.8 - 0.6
02/03:00pm 2.9 -4.3 1.0 87 0.7 W 28 35 15 19 963.7 964.0 0.6
02/02:30pm 3.2 -4.9 1.3 87 0.7 W 33 41 18 22 963.4 - 0.6
02/02:00pm 3.9 -3.0 2.6 91 0.5 W 28 33 15 18 963.1 - 0.6
02/01:30pm 2.9 -2.7 1.3 89 0.6 WSW 20 28 11 15 963.1 - 0.4
02/01:03pm 3.9 -4.5 1.3 83 1.0 W 35 46 19 25 963.2 - 0.0
02/01:00pm 4.5 -5.5 1.9 83 1.0 NW 44 56 24 30 962.8 - 0.0
02/12:49pm 4.8 -4.2 2.5 85 0.9 WNW 39 46 21 25 962.8 - 0.0
02/12:37pm 4.5 -4.0 1.0 78 1.4 NNW 35 56 19 30 962.8 - 0.0
02/12:30pm 5.9 -2.2 3.1 82 1.2 NNW 35 39 19 21 962.9 - 0.0
02/12:00pm 4.5 -3.2 2.2 85 0.9 WNW 32 39 17 21 963.3 963.6 0.0
02/11:36am 4.0 -5.1 2.0 87 0.8 W 39 57 21 31 963.4 - 0.0
02/11:30am 3.7 -6.8 1.3 84 0.9 W 46 57 25 31 963.4 - 0.0
02/11:25am 4.6 -5.9 1.5 80 1.2 W 46 54 25 29 963.4 - 0.0
02/11:24am 4.8 -5.1 1.5 79 1.3 NNW 43 54 23 29 963.3 - 0.0
02/11:21am 5.2 -4.8 1.3 76 1.5 N 43 48 23 26 963.3 - 0.0
02/11:18am 5.5 -4.6 1.6 76 1.6 NW 44 50 24 27 963.3 - 0.0
02/11:06am 5.7 -4.1 2.2 78 1.4 N 43 50 23 27 963.3 - 0.0
02/11:00am 5.6 -3.0 2.4 80 1.3 NW 37 48 20 26 963.4 - 0.0
02/10:59am 5.9 -2.2 3.2 83 1.2 NW 35 43 19 23 963.5 - 0.0
02/10:43am 4.7 -4.4 1.9 82 1.1 W 39 48 21 26 963.6 - 0.0
02/10:30am 5.0 -5.1 1.8 80 1.3 NNW 44 54 24 29 963.5 - 0.0
02/10:12am 5.3 -5.9 1.8 78 1.4 N 50 57 27 31 963.5 - 0.0
02/10:02am 5.0 -5.5 1.7 79 1.3 NW 46 52 25 28 963.6 - 0.0
02/10:00am 4.9 -5.2 1.6 79 1.3 N 44 52 24 28 963.6 - 0.0
02/09:58am 5.1 -4.7 2.5 83 1.1 N 43 50 23 27 963.7 - 0.0
02/09:49am 4.7 -5.8 1.2 78 1.4 WNW 46 59 25 32 963.8 - 0.0
02/09:44am 4.9 -6.4 1.4 78 1.4 NNW 50 56 27 30 963.6 - 0.0
02/09:34am 4.8 -6.6 0.8 75 1.5 WNW 50 59 27 32 963.7 - 0.0
02/09:30am 5.8 -5.4 1.9 76 1.6 N 50 63 27 34 963.8 - 0.0
02/09:11am 5.1 -6.2 1.2 76 1.5 N 50 57 27 31 963.7 - 0.0
02/09:02am 4.9 -6.8 1.2 77 1.4 NW 52 59 28 32 963.8 - 0.0
02/09:00am 4.9 -7.2 0.9 75 1.6 N 54 63 29 34 963.9 964.2 6.4
02/08:46am 4.9 -7.2 1.2 77 1.4 NNW 54 59 29 32 963.9 - 6.4
02/08:40am 5.0 -7.7 0.8 74 1.6 NNE 57 65 31 35 963.9 - 6.4
02/08:30am 5.0 -7.1 0.8 74 1.6 N 54 61 29 33 963.9 - 6.4
02/08:28am 4.9 -7.3 0.5 73 1.7 NNW 54 59 29 32 963.9 - 6.4
02/08:24am 4.8 -8.0 0.4 73 1.7 N 57 67 31 36 963.9 - 6.4
02/08:15am 4.8 -7.4 0.6 74 1.6 NNW 54 61 29 33 963.7 - 6.4
02/08:13am 4.7 -8.4 0.3 73 1.7 NNE 59 67 32 36 963.7 - 6.4
02/08:00am 4.6 -8.2 0.2 73 1.7 NNW 57 67 31 36 963.5 - 6.4
02/07:30am 4.2 -8.5 0.5 77 1.4 NW 57 69 31 37 963.6 - 6.4
02/07:00am 4.4 -7.5 1.9 84 1.0 NW 54 61 29 33 963.7 - 6.4
02/06:56am 4.2 -7.8 1.7 84 1.0 NW 54 61 29 33 963.6 - 6.4
02/06:54am 4.2 -6.3 1.7 84 1.0 WNW 46 57 25 31 963.4 - 6.4
02/06:33am 4.2 -8.2 2.4 88 0.7 NW 57 67 31 36 963.9 - 6.4
02/06:30am 4.3 -7.2 2.5 88 0.7 N 52 63 28 34 963.8 - 6.4
02/06:28am 4.4 -6.6 2.8 89 0.6 N 50 57 27 31 963.8 - 6.4
02/06:10am 4.3 -5.6 2.7 89 0.6 NNW 44 63 24 34 963.9 - 6.4
02/06:00am 4.2 -5.2 2.2 87 0.8 NNW 41 56 22 30 964.1 964.4 6.4
02/05:42am 4.1 -4.1 2.5 89 0.6 NNW 35 43 19 23 964.1 - 6.4
02/05:40am 4.1 -5.7 2.5 89 0.6 N 43 46 23 25 964.2 - 6.4
02/05:33am 4.1 -5.2 2.8 91 0.5 NNW 41 46 22 25 964.4 - 6.4
02/05:30am 4.1 -6.6 2.8 91 0.5 WNW 48 61 26 33 964.3 - 6.4
02/05:23am 4.0 -7.8 2.7 91 0.5 WNW 54 74 29 40 964.6 - 6.4
02/05:14am 4.1 -9.0 2.8 91 0.5 NW 61 74 33 40 964.9 - 6.0
02/05:00am 5.3 -8.7 4.3 93 0.4 N 67 87 36 47 963.8 - 5.8
02/04:55am 5.0 -7.5 4.1 94 0.4 N 59 80 32 43 964.3 - 5.8
02/04:30am 4.7 -6.2 3.7 93 0.4 N 50 63 27 34 966.1 - 4.6
02/04:00am 4.7 -7.9 3.5 92 0.5 N 59 78 32 42 967.6 - 4.0
02/03:30am 4.2 -9.3 3.0 92 0.5 N 63 82 34 44 969.1 - 3.4
02/03:02am 4.0 -8.8 2.7 91 0.5 N 59 78 32 42 970.7 - 2.4
02/03:00am 4.0 -8.8 2.7 91 0.5 N 59 76 32 41 970.9 971.2 2.4
02/02:30am 4.3 -8.1 2.7 89 0.6 N 57 76 31 41 972.4 - 1.2
02/02:28am 4.2 -8.2 2.6 89 0.6 N 57 76 31 41 972.5 - 1.2
02/02:00am 4.1 -7.7 2.5 89 0.6 N 54 70 29 38 974.2 - 0.8
02/01:30am 4.2 -8.7 2.1 86 0.8 N 59 76 32 41 975.6 - 0.4
02/01:00am 4.2 -7.4 1.6 83 1.0 N 52 76 28 41 977.0 - 0.0
02/12:58am 4.2 -7.1 1.4 82 1.1 N 50 74 27 40 977.2 - 0.0
02/12:30am 4.5 -6.4 1.5 81 1.2 N 48 57 26 31 978.6 - 0.0
02/12:02am 4.4 -7.0 0.4 75 1.6 N 50 69 27 37 979.6 - 0.0
02/12:00am 4.5 -6.1 0.8 77 1.5 N 46 57 25 31 979.9 980.2 0.0
 
Date/Time
EST
Temp
°C
App
Temp
°C
Dew
Point
Rel
Hum
%
Delta-T
°C
Wind Press
QNH
hPa
Press
MSL
hPa
Rain
since 9 am
mm
Dir
 
Spd
km/h
Gust
km/h
Spd
kts
Gust
kts
01/11:30pm 4.1 -7.1 -0.7 71 1.8 N 48 57 26 31 981.0 - 0.0
01/11:00pm 4.1 -6.7 -0.5 72 1.7 N 46 54 25 29 982.3 - 0.0
01/10:30pm 4.1 -5.7 -0.5 72 1.7 NNW 41 50 22 27 983.5 - 0.0
01/10:00pm 3.9 -6.5 -1.5 68 1.9 NNW 43 50 23 27 984.7 - 0.0
01/09:30pm 3.9 -6.1 -1.5 68 1.9 NNW 41 54 22 29 985.5 - 0.0
01/09:00pm 3.6 -6.6 -3.0 62 2.3 NNW 41 54 22 29 986.1 986.4 0.0
01/08:30pm 3.5 -7.3 -3.1 62 2.3 NNW 44 50 24 27 986.7 - 0.0
01/08:25pm 3.5 -7.7 -3.5 60 2.4 NNW 46 50 25 27 986.8 - 0.0
01/08:23pm 3.5 -7.6 -2.9 63 2.2 N 46 52 25 28 986.8 - 0.0
01/08:05pm 3.5 -6.5 -2.0 67 1.9 NNW 41 50 22 27 987.1 - 0.0
01/08:00pm 3.6 -6.4 -1.5 69 1.8 N 41 48 22 26 987.3 - 0.0
01/07:52pm 3.6 -5.9 -1.0 72 1.7 N 39 44 21 24 987.5 - 0.0
01/07:47pm 3.6 -5.5 -0.8 73 1.6 NNW 37 44 20 24 987.5 - 0.0
01/07:40pm 3.5 -5.1 0.0 78 1.3 WNW 35 54 19 29 987.8 - 0.0
01/07:33pm 3.6 -5.8 0.0 77 1.3 WNW 39 54 21 29 988.0 - 0.0
01/07:30pm 3.7 -6.5 -0.5 74 1.6 NNW 43 50 23 27 987.9 - 0.0
01/07:00pm 3.5 -5.0 0.7 82 1.1 NNW 35 37 19 20 988.2 - 0.0
01/06:30pm 3.4 -3.7 1.1 85 0.9 WNW 28 33 15 18 988.5 - 0.0
01/06:00pm 3.4 -3.7 1.1 85 0.9 W 28 32 15 17 988.7 989.0 0.0
01/05:30pm 3.5 -5.0 0.9 83 1.0 W 35 46 19 25 988.9 - 0.0
01/05:00pm 4.1 -4.6 1.8 85 0.9 W 37 44 20 24 988.8 - 0.0
01/04:30pm 4.3 -4.4 1.7 83 1.0 W 37 46 20 25 988.6 - 0.0
01/04:19pm 5.0 -4.0 2.5 84 1.0 WNW 39 46 21 25 988.4 - 0.0
01/04:08pm 5.1 -3.9 2.3 82 1.1 NW 39 46 21 25 988.3 - 0.0
01/04:05pm 5.1 -4.7 2.1 81 1.2 N 43 48 23 26 988.3 - 0.0
01/04:00pm 5.1 -4.3 2.1 81 1.2 NW 41 48 22 26 988.3 - 0.0
01/03:54pm 5.4 -4.4 2.4 81 1.2 NW 43 46 23 25 988.3 - 0.0
01/03:51pm 5.3 -4.5 2.5 82 1.1 N 43 48 23 26 988.3 - 0.0
01/03:48pm 5.2 -4.6 2.2 81 1.2 NW 43 50 23 27 988.3 - 0.0
01/03:46pm 5.3 -5.1 2.3 81 1.2 NNE 46 54 25 29 988.2 - 0.0
01/03:39pm 5.4 -4.9 2.4 81 1.2 NNW 46 52 25 28 988.2 - 0.0
01/03:30pm 5.5 -4.5 2.3 80 1.3 N 44 48 24 26 988.3 - 0.0
01/03:29pm 5.6 -4.4 2.4 80 1.3 NNE 44 48 24 26 988.3 - 0.0
01/03:13pm 5.6 -4.2 2.4 80 1.3 N 43 46 23 25 988.3 - 0.0
01/03:10pm 5.8 -3.9 2.6 80 1.3 NNE 43 48 23 26 988.3 - 0.0
01/03:08pm 5.9 -3.8 2.7 80 1.3 N 43 46 23 25 988.3 - 0.0
01/03:05pm 5.6 -4.2 2.3 79 1.3 NNE 43 48 23 26 988.2 - 0.0
01/03:00pm 5.8 -2.8 2.6 80 1.3 NNW 37 46 20 25 988.3 988.6 0.0
01/02:30pm 5.9 -2.3 2.9 81 1.2 N 35 43 19 23 988.4 - 0.0
01/02:12pm 6.1 -2.0 3.1 81 1.2 N 35 43 19 23 988.4 - 0.0
01/02:00pm 6.3 -2.9 3.5 82 1.2 NNE 41 44 22 24 988.5 - 0.0
01/01:57pm 6.2 -2.6 3.5 83 1.1 NNE 39 44 21 24 988.4 - 0.0
01/01:55pm 6.3 -2.5 3.6 83 1.1 N 39 43 21 23 988.5 - 0.0
01/01:50pm 6.4 -2.3 3.9 84 1.1 NNE 39 43 21 23 988.6 - 0.0
01/01:48pm 6.2 -2.6 3.5 83 1.1 NNW 39 43 21 23 988.6 - 0.0
01/01:43pm 6.3 -2.5 3.6 83 1.1 N 39 46 21 25 988.6 - 0.0
01/01:37pm 6.3 -1.2 3.6 83 1.1 NNW 32 39 17 21 988.7 - 0.0
01/01:35pm 6.3 -2.9 3.5 82 1.2 N 41 44 22 24 988.6 - 0.0
01/01:30pm 6.3 -1.8 3.5 82 1.2 NNW 35 43 19 23 988.7 - 0.0
01/01:29pm 6.3 -1.7 3.6 83 1.1 NNW 35 43 19 23 988.7 - 0.0
01/01:26pm 6.4 -2.0 3.7 83 1.1 N 37 43 20 23 988.6 - 0.0
01/01:00pm 6.4 -0.7 3.7 83 1.1 NNW 30 37 16 20 988.7 - 0.0
01/12:30pm 6.9 0.3 4.4 84 1.1 NNW 28 35 15 19 988.8 - 0.0
01/12:00pm 6.8 0.6 4.1 83 1.2 NNW 26 35 14 19 988.7 989.0 0.0
01/11:30am 6.7 0.9 4.2 84 1.1 NNW 24 33 13 18 988.8 - 0.0
01/11:00am 6.7 0.9 4.4 85 1.0 NNW 24 30 13 16 988.9 - 0.0
01/10:30am 6.7 0.6 4.7 87 0.9 NNW 26 32 14 17 989.0 - 0.0
01/10:00am 6.7 0.6 4.7 87 0.9 NNW 26 32 14 17 988.9 - 0.0
01/09:30am 6.4 0.6 4.6 88 0.8 NNW 24 28 13 15 988.7 - 0.0
01/09:00am 6.5 0.8 4.8 89 0.7 NNW 24 28 13 15 988.8 989.1 0.6
01/08:30am 5.8 0.4 4.6 92 0.5 NNW 22 26 12 14 988.7 - 0.6
01/08:00am 5.7 -0.1 4.5 92 0.5 NNW 24 28 13 15 988.8 - 0.6
01/07:30am 5.5 -0.3 4.5 93 0.4 NNW 24 26 13 14 988.8 - 0.6
01/07:00am 5.3 -0.1 4.4 94 0.4 NNW 22 26 12 14 988.5 - 0.6
01/06:30am 5.1 -0.7 4.2 94 0.4 NNW 24 28 13 15 988.6 - 0.6
01/06:00am 5.1 -0.4 4.2 94 0.4 NNW 22 24 12 13 988.6 988.9 0.6
01/05:30am 5.1 -0.8 4.1 93 0.4 NNW 24 28 13 15 988.5 - 0.6
01/05:00am 5.2 -0.6 4.2 93 0.4 NNW 24 28 13 15 988.4 - 0.6
01/04:30am 5.1 -1.5 4.1 93 0.4 NNW 28 32 15 17 988.2 - 0.6
01/04:00am 5.1 -1.9 4.1 93 0.4 NNW 30 33 16 18 988.2 - 0.6
01/03:30am 5.0 -1.6 4.0 93 0.4 N 28 33 15 18 988.3 - 0.6
01/03:00am 5.0 -2.0 4.0 93 0.4 N 30 35 16 19 988.2 988.5 0.6
01/02:30am 4.9 -2.5 3.9 93 0.4 NNW 32 33 17 18 988.4 - 0.6
01/02:00am 4.9 -2.1 3.9 93 0.4 N 30 33 16 18 988.4 - 0.6
01/01:30am 4.9 -2.1 3.9 93 0.4 N 30 32 16 17 988.3 - 0.6
01/01:00am 4.9 -2.5 3.9 93 0.4 NNW 32 35 17 19 988.3 - 0.6
01/12:30am 5.0 -2.4 4.0 93 0.4 NNW 32 37 17 20 988.5 - 0.6
01/12:00am 4.9 -2.1 3.9 93 0.4 N 30 35 16 19 988.4 988.7 0.6
 
Date/Time
EST
Temp
°C
App
Temp
°C
Dew
Point
Rel
Hum
%
Delta-T
°C
Wind Press
QNH
hPa
Press
MSL
hPa
Rain
since 9 am
mm
Dir
 
Spd
km/h
Gust
km/h
Spd
kts
Gust
kts
30/11:30pm 5.0 -0.9 3.8 92 0.5 N 24 28 13 15 988.1 - 0.6
30/11:00pm 5.0 -0.5 3.8 92 0.5 N 22 24 12 13 988.3 - 0.6
30/10:30pm 5.0 0.0 3.8 92 0.5 N 19 24 10 13 988.1 - 0.6
30/10:00pm 5.0 0.1 4.0 93 0.4 N 19 26 10 14 988.0 - 0.6
30/09:30pm 5.0 -0.5 3.8 92 0.5 N 22 26 12 14 988.1 - 0.6
30/09:00pm 5.0 -1.3 3.5 90 0.6 NNW 26 32 14 17 988.2 988.5 0.4
30/08:30pm 5.2 -2.3 3.5 89 0.7 NNW 32 35 17 19 988.3 - 0.2
30/08:00pm 5.4 -2.2 3.9 90 0.6 NNW 33 37 18 20 987.9 - 0.0
30/07:30pm 5.7 -2.2 4.2 90 0.6 NNW 35 44 19 24 987.6 - 0.0
30/07:00pm 5.8 -2.4 4.6 92 0.5 N 37 41 20 22 987.5 - 0.0
30/06:30pm 5.9 -0.9 4.9 93 0.4 N 30 33 16 18 987.7 - 0.0
30/06:00pm 6.1 -1.3 4.9 92 0.5 N 33 37 18 20 987.6 987.9 0.0
30/05:30pm 5.8 -0.8 4.3 90 0.6 N 28 33 15 18 987.6 - 0.0
30/05:00pm 5.9 -1.5 4.1 88 0.8 NNW 32 35 17 19 987.4 - 0.0
30/04:30pm 5.9 -1.5 4.2 89 0.7 NNW 32 41 17 22 987.5 - 0.0
30/04:00pm 6.0 -1.9 4.3 89 0.7 N 35 39 19 21 987.3 - 0.0
30/03:30pm 6.0 -1.5 4.2 88 0.8 NNW 33 39 18 21 986.9 - 0.0
30/03:00pm 6.1 -1.8 4.1 87 0.9 NNW 35 41 19 22 986.9 987.2 0.0
30/02:30pm 6.2 -2.9 4.2 87 0.9 NNW 41 46 22 25 986.7 - 0.0
30/02:00pm 6.1 -2.6 4.1 87 0.9 NNW 39 44 21 24 986.5 - 0.0
30/01:30pm 6.3 -3.4 3.8 84 1.1 NNW 44 52 24 28 986.0 - 0.0
30/01:00pm 6.5 -3.2 4.0 84 1.1 NNW 44 57 24 31 985.4 - 0.0
30/12:30pm 6.7 -2.9 4.2 84 1.1 NNW 44 56 24 30 984.7 - 0.0
30/12:00pm 6.7 -3.7 4.2 84 1.1 NNW 48 59 26 32 984.2 984.5 0.0
30/11:30am 6.7 -3.7 4.2 84 1.1 NNW 48 57 26 31 983.4 - 0.0
30/11:00am 6.6 -3.0 4.3 85 1.0 NNW 44 56 24 30 982.9 - 0.0
30/10:30am 7.2 -3.1 4.7 84 1.1 NNW 48 65 26 35 982.2 - 0.0
30/10:00am 7.5 -3.8 5.3 86 1.0 NNW 54 69 29 37 981.2 - 0.0
30/09:30am 7.2 -5.0 5.5 89 0.8 NNW 59 72 32 39 980.4 - 0.0
30/09:12am 7.2 -6.2 5.3 88 0.8 NNW 65 83 35 45 979.7 - 0.0
30/09:00am 7.2 -6.6 5.3 88 0.9 NNW 67 80 36 43 979.4 979.7 1.8
30/08:30am 7.4 -6.7 5.5 88 0.8 NNW 69 87 37 47 978.8 - 1.8
30/08:00am 7.1 -7.2 5.7 91 0.6 NNW 70 83 38 45 978.5 - 1.8
30/07:30am 7.1 -6.9 6.0 93 0.5 NNW 69 83 37 45 978.2 - 1.8
30/07:00am 7.0 -7.0 5.9 93 0.5 NNW 69 82 37 44 978.4 - 1.8
30/06:30am 6.8 -6.5 5.9 94 0.4 NNW 65 78 35 42 978.6 - 1.4
30/06:00am 6.7 -6.6 6.0 95 0.3 NNW 65 76 35 41 978.5 978.8 1.4
30/05:30am 6.5 -6.1 5.6 94 0.4 NNW 61 72 33 39 978.9 - 1.2
30/05:00am 6.3 -5.9 5.4 94 0.4 NNW 59 69 32 37 979.5 - 1.0
30/04:30am 6.4 -6.2 5.4 93 0.4 NNW 61 72 33 39 979.7 - 0.6
30/04:00am 6.7 -7.0 5.5 92 0.5 NNW 67 82 36 44 979.8 - 0.4
30/03:30am 6.8 -7.3 5.6 92 0.5 NNW 69 80 37 43 980.0 - 0.4
30/03:00am 6.7 -6.7 5.5 92 0.5 NNW 65 80 35 43 980.2 980.5 0.2
30/02:30am 6.8 -7.0 5.4 91 0.6 NNW 67 82 36 44 980.4 - 0.2
30/02:00am 6.8 -7.0 5.3 90 0.7 NNW 67 80 36 43 980.6 - 0.2
30/01:30am 6.8 -7.4 5.3 90 0.7 NNW 69 83 37 45 980.7 - 0.2
30/01:20am 6.8 -6.6 5.3 90 0.7 NNW 65 83 35 45 980.8 - 0.2
30/01:00am 6.8 -7.1 5.0 88 0.8 NNW 67 82 36 44 981.1 - 0.2
30/12:30am 6.7 -6.8 5.0 89 0.7 NNW 65 76 35 41 981.5 - 0.2
30/12:12am 6.7 -6.0 5.0 89 0.7 NNW 61 80 33 43 981.9 - 0.2
30/12:00am 6.6 -5.8 4.9 89 0.8 NNW 59 70 32 38 982.1 982.4 0.2
 
Date/Time
EST
Temp
°C
App
Temp
°C
Dew
Point
Rel
Hum
%
Delta-T
°C
Wind Press
QNH
hPa
Press
MSL
hPa
Rain
since 9 am
mm
Dir
 
Spd
km/h
Gust
km/h
Spd
kts
Gust
kts
29/11:30pm 6.4 -5.6 4.7 89 0.7 NNW 57 74 31 40 982.7 - 0.2
29/11:00pm 6.3 -5.7 4.6 89 0.7 NNW 57 65 31 35 983.0 - 0.2
29/10:30pm 6.1 -5.0 4.6 90 0.6 NNW 52 59 28 32 983.4 - 0.2
29/10:00pm 6.0 -4.3 4.5 90 0.6 NNW 48 57 26 31 983.8 - 0.2
29/09:30pm 5.8 -3.8 4.3 90 0.6 NNW 44 54 24 29 984.2 - 0.2
29/09:00pm 5.8 -3.9 4.0 88 0.8 NNW 44 52 24 28 984.1 984.4 0.2
29/08:30pm 6.0 -4.8 4.0 87 0.8 NNW 50 57 27 31 983.9 - 0.2

Other Formats:

Comma delimited format used in spreadsheet applications
http://www.bom.gov.au/fwo/IDT60801/IDT60801.94998.axf

JavaScript Object Notation format (JSON) in row-major order
http://www.bom.gov.au/fwo/IDT60801/IDT60801.94998.json